sensor_id;sensor_type;location;lat;lon;timestamp;P1;durP1;ratioP1;P2;durP2;ratioP2
69401;SDS011;56589;51.992;5.924;2022-11-20T00:00:45;14.15;;;8.00;;
69401;SDS011;56589;51.992;5.924;2022-11-20T00:03:12;14.02;;;7.93;;
69401;SDS011;56589;51.992;5.924;2022-11-20T00:05:37;13.73;;;7.85;;
69401;SDS011;56589;51.992;5.924;2022-11-20T00:08:04;12.48;;;7.38;;
69401;SDS011;56589;51.992;5.924;2022-11-20T00:10:32;15.40;;;8.25;;
69401;SDS011;56589;51.992;5.924;2022-11-20T00:13:01;14.30;;;7.63;;
69401;SDS011;56589;51.992;5.924;2022-11-20T00:15:27;12.63;;;7.38;;
69401;SDS011;56589;51.992;5.924;2022-11-20T00:17:53;13.90;;;7.13;;
69401;SDS011;56589;51.992;5.924;2022-11-20T00:20:18;15.52;;;7.43;;
69401;SDS011;56589;51.992;5.924;2022-11-20T00:22:44;13.52;;;7.20;;
69401;SDS011;56589;51.992;5.924;2022-11-20T00:25:10;14.20;;;7.68;;
69401;SDS011;56589;51.992;5.924;2022-11-20T00:27:38;14.25;;;8.25;;
69401;SDS011;56589;51.992;5.924;2022-11-20T00:30:05;13.82;;;7.40;;
69401;SDS011;56589;51.992;5.924;2022-11-20T00:32:32;11.95;;;7.57;;
69401;SDS011;56589;51.992;5.924;2022-11-20T00:34:58;11.50;;;6.65;;
69401;SDS011;56589;51.992;5.924;2022-11-20T00:37:24;12.57;;;7.28;;
69401;SDS011;56589;51.992;5.924;2022-11-20T00:39:51;12.57;;;7.40;;
69401;SDS011;56589;51.992;5.924;2022-11-20T00:42:16;13.88;;;7.80;;
69401;SDS011;56589;51.992;5.924;2022-11-20T00:44:45;11.07;;;7.25;;
69401;SDS011;56589;51.992;5.924;2022-11-20T00:47:11;12.80;;;7.88;;
69401;SDS011;56589;51.992;5.924;2022-11-20T00:49:36;12.63;;;7.70;;
69401;SDS011;56589;51.992;5.924;2022-11-20T00:52:02;12.63;;;7.43;;
69401;SDS011;56589;51.992;5.924;2022-11-20T00:54:28;13.85;;;7.95;;
69401;SDS011;56589;51.992;5.924;2022-11-20T00:56:54;12.43;;;7.45;;
69401;SDS011;56589;51.992;5.924;2022-11-20T00:59:20;14.55;;;7.55;;
69401;SDS011;56589;51.992;5.924;2022-11-20T01:01:48;13.13;;;7.28;;
69401;SDS011;56589;51.992;5.924;2022-11-20T01:04:14;13.25;;;7.25;;
69401;SDS011;56589;51.992;5.924;2022-11-20T01:06:39;13.90;;;7.35;;
69401;SDS011;56589;51.992;5.924;2022-11-20T01:09:06;13.43;;;7.65;;
69401;SDS011;56589;51.992;5.924;2022-11-20T01:11:38;13.27;;;7.55;;
69401;SDS011;56589;51.992;5.924;2022-11-20T01:14:07;14.15;;;8.20;;
69401;SDS011;56589;51.992;5.924;2022-11-20T01:16:37;14.18;;;7.90;;
69401;SDS011;56589;51.992;5.924;2022-11-20T01:19:12;13.02;;;7.50;;
69401;SDS011;56589;51.992;5.924;2022-11-20T01:21:41;13.05;;;7.53;;
69401;SDS011;56589;51.992;5.924;2022-11-20T01:24:11;12.85;;;6.90;;
69401;SDS011;56589;51.992;5.924;2022-11-20T01:26:40;13.18;;;6.63;;
69401;SDS011;56589;51.992;5.924;2022-11-20T01:29:09;13.73;;;8.15;;
69401;SDS011;56589;51.992;5.924;2022-11-20T01:31:39;13.90;;;7.35;;
69401;SDS011;56589;51.992;5.924;2022-11-20T01:34:06;12.07;;;7.15;;
69401;SDS011;56589;51.992;5.924;2022-11-20T01:36:40;13.75;;;7.78;;
69401;SDS011;56589;51.992;5.924;2022-11-20T01:39:09;12.40;;;7.20;;
69401;SDS011;56589;51.992;5.924;2022-11-20T01:41:37;14.68;;;8.32;;
69401;SDS011;56589;51.992;5.924;2022-11-20T01:44:04;14.48;;;7.70;;
69401;SDS011;56589;51.992;5.924;2022-11-20T01:46:30;13.80;;;8.73;;
69401;SDS011;56589;51.992;5.924;2022-11-20T01:48:58;16.50;;;7.93;;
69401;SDS011;56589;51.992;5.924;2022-11-20T01:51:33;13.90;;;7.80;;
69401;SDS011;56589;51.992;5.924;2022-11-20T01:54:07;14.77;;;7.82;;
69401;SDS011;56589;51.992;5.924;2022-11-20T01:56:38;13.45;;;7.70;;
69401;SDS011;56589;51.992;5.924;2022-11-20T01:59:09;13.73;;;7.20;;
69401;SDS011;56589;51.992;5.924;2022-11-20T02:01:39;13.00;;;7.25;;
69401;SDS011;56589;51.992;5.924;2022-11-20T02:04:05;13.35;;;7.32;;
69401;SDS011;56589;51.992;5.924;2022-11-20T02:06:38;14.55;;;7.43;;
69401;SDS011;56589;51.992;5.924;2022-11-20T02:09:10;13.05;;;7.55;;
69401;SDS011;56589;51.992;5.924;2022-11-20T02:11:36;12.20;;;8.00;;
69401;SDS011;56589;51.992;5.924;2022-11-20T02:14:02;13.10;;;8.10;;
69401;SDS011;56589;51.992;5.924;2022-11-20T02:16:30;12.88;;;7.97;;
69401;SDS011;56589;51.992;5.924;2022-11-20T02:19:00;12.98;;;7.38;;
69401;SDS011;56589;51.992;5.924;2022-11-20T02:21:34;13.60;;;7.65;;
69401;SDS011;56589;51.992;5.924;2022-11-20T02:24:12;14.43;;;8.07;;
69401;SDS011;56589;51.992;5.924;2022-11-20T02:26:42;13.57;;;8.00;;
69401;SDS011;56589;51.992;5.924;2022-11-20T02:29:16;12.75;;;7.32;;
69401;SDS011;56589;51.992;5.924;2022-11-20T02:31:50;12.32;;;7.55;;
69401;SDS011;56589;51.992;5.924;2022-11-20T02:34:20;13.95;;;7.50;;
69401;SDS011;56589;51.992;5.924;2022-11-20T02:36:46;11.63;;;7.60;;
69401;SDS011;56589;51.992;5.924;2022-11-20T02:39:17;13.38;;;7.93;;
69401;SDS011;56589;51.992;5.924;2022-11-20T02:41:44;15.55;;;8.15;;
69401;SDS011;56589;51.992;5.924;2022-11-20T02:44:11;13.52;;;8.32;;
69401;SDS011;56589;51.992;5.924;2022-11-20T02:46:37;13.13;;;7.65;;
69401;SDS011;56589;51.992;5.924;2022-11-20T02:49:03;13.25;;;7.28;;
69401;SDS011;56589;51.992;5.924;2022-11-20T02:51:30;12.23;;;7.32;;
69401;SDS011;56589;51.992;5.924;2022-11-20T02:53:57;14.73;;;7.80;;
69401;SDS011;56589;51.992;5.924;2022-11-20T02:56:26;13.52;;;7.35;;
69401;SDS011;56589;51.992;5.924;2022-11-20T02:58:52;14.25;;;7.68;;
69401;SDS011;56589;51.992;5.924;2022-11-20T03:01:18;14.80;;;8.82;;
69401;SDS011;56589;51.992;5.924;2022-11-20T03:03:43;13.02;;;7.70;;
69401;SDS011;56589;51.992;5.924;2022-11-20T03:06:09;13.48;;;7.78;;
69401;SDS011;56589;51.992;5.924;2022-11-20T03:08:35;13.45;;;7.28;;
69401;SDS011;56589;51.992;5.924;2022-11-20T03:11:05;14.68;;;7.57;;
69401;SDS011;56589;51.992;5.924;2022-11-20T03:13:35;13.18;;;7.20;;
69401;SDS011;56589;51.992;5.924;2022-11-20T03:16:07;15.05;;;8.30;;
69401;SDS011;56589;51.992;5.924;2022-11-20T03:18:36;14.68;;;7.95;;
69401;SDS011;56589;51.992;5.924;2022-11-20T03:21:02;16.00;;;8.82;;
69401;SDS011;56589;51.992;5.924;2022-11-20T03:23:28;14.23;;;8.73;;
69401;SDS011;56589;51.992;5.924;2022-11-20T03:25:55;13.88;;;8.50;;
69401;SDS011;56589;51.992;5.924;2022-11-20T03:28:21;12.05;;;7.22;;
69401;SDS011;56589;51.992;5.924;2022-11-20T03:30:50;13.25;;;7.72;;
69401;SDS011;56589;51.992;5.924;2022-11-20T03:33:15;12.65;;;7.85;;
69401;SDS011;56589;51.992;5.924;2022-11-20T03:35:41;12.88;;;7.60;;
69401;SDS011;56589;51.992;5.924;2022-11-20T03:38:07;13.63;;;8.68;;
69401;SDS011;56589;51.992;5.924;2022-11-20T03:40:33;18.35;;;9.45;;
69401;SDS011;56589;51.992;5.924;2022-11-20T03:42:59;16.05;;;8.73;;
69401;SDS011;56589;51.992;5.924;2022-11-20T03:45:25;13.50;;;8.13;;
69401;SDS011;56589;51.992;5.924;2022-11-20T03:47:53;12.25;;;7.80;;
69401;SDS011;56589;51.992;5.924;2022-11-20T03:50:19;15.18;;;9.00;;
69401;SDS011;56589;51.992;5.924;2022-11-20T03:52:44;16.40;;;8.55;;
69401;SDS011;56589;51.992;5.924;2022-11-20T03:55:10;15.38;;;8.45;;
69401;SDS011;56589;51.992;5.924;2022-11-20T03:57:36;14.82;;;8.70;;
69401;SDS011;56589;51.992;5.924;2022-11-20T04:00:02;13.57;;;8.50;;
69401;SDS011;56589;51.992;5.924;2022-11-20T04:02:30;14.13;;;7.85;;
69401;SDS011;56589;51.992;5.924;2022-11-20T04:04:58;16.08;;;8.13;;
69401;SDS011;56589;51.992;5.924;2022-11-20T04:07:24;14.55;;;8.48;;
69401;SDS011;56589;51.992;5.924;2022-11-20T04:09:50;13.52;;;7.70;;
69401;SDS011;56589;51.992;5.924;2022-11-20T04:12:15;14.10;;;8.40;;
69401;SDS011;56589;51.992;5.924;2022-11-20T04:14:41;15.20;;;8.93;;
69401;SDS011;56589;51.992;5.924;2022-11-20T04:17:07;15.55;;;8.82;;
69401;SDS011;56589;51.992;5.924;2022-11-20T04:19:32;14.18;;;8.70;;
69401;SDS011;56589;51.992;5.924;2022-11-20T04:22:01;16.92;;;10.35;;
69401;SDS011;56589;51.992;5.924;2022-11-20T04:24:27;18.15;;;8.48;;
69401;SDS011;56589;51.992;5.924;2022-11-20T04:26:52;18.23;;;9.15;;
69401;SDS011;56589;51.992;5.924;2022-11-20T04:29:18;16.48;;;9.25;;
69401;SDS011;56589;51.992;5.924;2022-11-20T04:31:44;17.63;;;9.63;;
69401;SDS011;56589;51.992;5.924;2022-11-20T04:34:10;15.38;;;8.60;;
69401;SDS011;56589;51.992;5.924;2022-11-20T04:36:37;14.73;;;8.38;;
69401;SDS011;56589;51.992;5.924;2022-11-20T04:39:05;15.45;;;8.40;;
69401;SDS011;56589;51.992;5.924;2022-11-20T04:41:32;16.10;;;8.73;;
69401;SDS011;56589;51.992;5.924;2022-11-20T04:44:01;19.55;;;9.38;;
69401;SDS011;56589;51.992;5.924;2022-11-20T04:46:30;15.38;;;9.35;;
69401;SDS011;56589;51.992;5.924;2022-11-20T04:48:59;14.77;;;8.20;;
69401;SDS011;56589;51.992;5.924;2022-11-20T04:51:25;16.52;;;8.75;;
69401;SDS011;56589;51.992;5.924;2022-11-20T04:53:52;17.20;;;9.70;;
69401;SDS011;56589;51.992;5.924;2022-11-20T04:56:20;16.67;;;9.30;;
69401;SDS011;56589;51.992;5.924;2022-11-20T04:58:46;17.50;;;8.85;;
69401;SDS011;56589;51.992;5.924;2022-11-20T05:01:13;15.00;;;8.32;;
69401;SDS011;56589;51.992;5.924;2022-11-20T05:03:42;14.00;;;8.48;;
69401;SDS011;56589;51.992;5.924;2022-11-20T05:06:10;14.98;;;8.60;;
69401;SDS011;56589;51.992;5.924;2022-11-20T05:08:38;14.68;;;8.63;;
69401;SDS011;56589;51.992;5.924;2022-11-20T05:11:06;14.93;;;9.10;;
69401;SDS011;56589;51.992;5.924;2022-11-20T05:13:37;17.30;;;9.98;;
69401;SDS011;56589;51.992;5.924;2022-11-20T05:16:04;16.20;;;9.48;;
69401;SDS011;56589;51.992;5.924;2022-11-20T05:18:33;15.85;;;8.40;;
69401;SDS011;56589;51.992;5.924;2022-11-20T05:20:59;16.17;;;8.82;;
69401;SDS011;56589;51.992;5.924;2022-11-20T05:23:25;17.23;;;9.05;;
69401;SDS011;56589;51.992;5.924;2022-11-20T05:25:52;17.70;;;10.00;;
69401;SDS011;56589;51.992;5.924;2022-11-20T05:28:19;17.63;;;9.18;;
69401;SDS011;56589;51.992;5.924;2022-11-20T05:30:48;16.17;;;9.73;;
69401;SDS011;56589;51.992;5.924;2022-11-20T05:33:15;17.38;;;9.50;;
69401;SDS011;56589;51.992;5.924;2022-11-20T05:35:41;17.25;;;9.60;;
69401;SDS011;56589;51.992;5.924;2022-11-20T05:38:07;17.42;;;9.80;;
69401;SDS011;56589;51.992;5.924;2022-11-20T05:40:33;17.40;;;9.43;;
69401;SDS011;56589;51.992;5.924;2022-11-20T05:42:59;16.77;;;8.88;;
69401;SDS011;56589;51.992;5.924;2022-11-20T05:45:25;16.50;;;9.40;;
69401;SDS011;56589;51.992;5.924;2022-11-20T05:47:57;16.30;;;9.52;;
69401;SDS011;56589;51.992;5.924;2022-11-20T05:50:23;18.95;;;9.82;;
69401;SDS011;56589;51.992;5.924;2022-11-20T05:52:49;16.98;;;9.68;;
69401;SDS011;56589;51.992;5.924;2022-11-20T05:55:15;16.52;;;9.02;;
69401;SDS011;56589;51.992;5.924;2022-11-20T05:57:41;19.27;;;10.07;;
69401;SDS011;56589;51.992;5.924;2022-11-20T06:00:07;18.23;;;9.35;;
69401;SDS011;56589;51.992;5.924;2022-11-20T06:02:35;17.92;;;9.30;;
69401;SDS011;56589;51.992;5.924;2022-11-20T06:05:04;15.75;;;9.38;;
69401;SDS011;56589;51.992;5.924;2022-11-20T06:07:31;16.50;;;9.05;;
69401;SDS011;56589;51.992;5.924;2022-11-20T06:09:56;18.38;;;9.23;;
69401;SDS011;56589;51.992;5.924;2022-11-20T06:12:22;18.10;;;9.77;;
69401;SDS011;56589;51.992;5.924;2022-11-20T06:14:48;17.60;;;9.73;;
69401;SDS011;56589;51.992;5.924;2022-11-20T06:17:13;21.35;;;10.73;;
69401;SDS011;56589;51.992;5.924;2022-11-20T06:19:39;17.55;;;10.15;;
69401;SDS011;56589;51.992;5.924;2022-11-20T06:22:08;16.38;;;9.75;;
69401;SDS011;56589;51.992;5.924;2022-11-20T06:24:33;15.23;;;9.32;;
69401;SDS011;56589;51.992;5.924;2022-11-20T06:26:59;18.40;;;9.65;;
69401;SDS011;56589;51.992;5.924;2022-11-20T06:29:25;18.85;;;9.70;;
69401;SDS011;56589;51.992;5.924;2022-11-20T06:31:50;19.33;;;10.20;;
69401;SDS011;56589;51.992;5.924;2022-11-20T06:34:16;19.38;;;10.07;;
69401;SDS011;56589;51.992;5.924;2022-11-20T06:36:42;19.27;;;10.45;;
69401;SDS011;56589;51.992;5.924;2022-11-20T06:39:11;21.45;;;10.88;;
69401;SDS011;56589;51.992;5.924;2022-11-20T06:41:36;16.95;;;10.10;;
69401;SDS011;56589;51.992;5.924;2022-11-20T06:44:03;23.55;;;10.27;;
69401;SDS011;56589;51.992;5.924;2022-11-20T06:46:29;18.80;;;10.50;;
69401;SDS011;56589;51.992;5.924;2022-11-20T06:48:55;20.02;;;10.85;;
69401;SDS011;56589;51.992;5.924;2022-11-20T06:51:20;18.70;;;10.02;;
69401;SDS011;56589;51.992;5.924;2022-11-20T06:53:46;20.42;;;10.93;;
69401;SDS011;56589;51.992;5.924;2022-11-20T06:56:14;18.88;;;11.00;;
69401;SDS011;56589;51.992;5.924;2022-11-20T06:58:40;17.48;;;9.63;;
69401;SDS011;56589;51.992;5.924;2022-11-20T07:01:07;22.10;;;11.05;;
69401;SDS011;56589;51.992;5.924;2022-11-20T07:03:36;17.80;;;10.50;;
69401;SDS011;56589;51.992;5.924;2022-11-20T07:06:02;18.33;;;9.80;;
69401;SDS011;56589;51.992;5.924;2022-11-20T07:08:29;20.15;;;10.70;;
69401;SDS011;56589;51.992;5.924;2022-11-20T07:10:56;19.27;;;9.88;;
69401;SDS011;56589;51.992;5.924;2022-11-20T07:13:27;18.92;;;10.63;;
69401;SDS011;56589;51.992;5.924;2022-11-20T07:15:54;15.75;;;10.10;;
69401;SDS011;56589;51.992;5.924;2022-11-20T07:18:20;17.77;;;9.77;;
69401;SDS011;56589;51.992;5.924;2022-11-20T07:20:46;19.50;;;10.77;;
69401;SDS011;56589;51.992;5.924;2022-11-20T07:23:11;17.67;;;10.32;;
69401;SDS011;56589;51.992;5.924;2022-11-20T07:25:37;20.05;;;11.27;;
69401;SDS011;56589;51.992;5.924;2022-11-20T07:28:03;20.25;;;11.05;;
69401;SDS011;56589;51.992;5.924;2022-11-20T07:30:32;19.27;;;11.02;;
69401;SDS011;56589;51.992;5.924;2022-11-20T07:32:57;17.80;;;10.65;;
69401;SDS011;56589;51.992;5.924;2022-11-20T07:35:24;21.05;;;10.77;;
69401;SDS011;56589;51.992;5.924;2022-11-20T07:37:52;20.05;;;9.80;;
69401;SDS011;56589;51.992;5.924;2022-11-20T07:40:18;19.08;;;10.52;;
69401;SDS011;56589;51.992;5.924;2022-11-20T07:42:47;19.20;;;11.15;;
69401;SDS011;56589;51.992;5.924;2022-11-20T07:45:13;22.00;;;11.50;;
69401;SDS011;56589;51.992;5.924;2022-11-20T07:47:42;18.38;;;11.45;;
69401;SDS011;56589;51.992;5.924;2022-11-20T07:50:08;18.75;;;11.77;;
69401;SDS011;56589;51.992;5.924;2022-11-20T07:52:34;21.48;;;11.55;;
69401;SDS011;56589;51.992;5.924;2022-11-20T07:55:00;22.38;;;12.48;;
69401;SDS011;56589;51.992;5.924;2022-11-20T07:57:26;19.52;;;11.30;;
69401;SDS011;56589;51.992;5.924;2022-11-20T07:59:51;21.20;;;12.45;;
69401;SDS011;56589;51.992;5.924;2022-11-20T08:02:17;20.20;;;11.68;;
69401;SDS011;56589;51.992;5.924;2022-11-20T08:04:45;20.90;;;11.55;;
69401;SDS011;56589;51.992;5.924;2022-11-20T08:07:11;22.70;;;12.00;;
69401;SDS011;56589;51.992;5.924;2022-11-20T08:09:37;24.33;;;12.32;;
69401;SDS011;56589;51.992;5.924;2022-11-20T08:12:03;21.23;;;12.07;;
69401;SDS011;56589;51.992;5.924;2022-11-20T08:14:29;23.55;;;12.27;;
69401;SDS011;56589;51.992;5.924;2022-11-20T08:16:55;21.73;;;12.18;;
69401;SDS011;56589;51.992;5.924;2022-11-20T08:19:21;21.25;;;11.85;;
69401;SDS011;56589;51.992;5.924;2022-11-20T08:21:49;20.42;;;12.10;;
69401;SDS011;56589;51.992;5.924;2022-11-20T08:24:15;20.40;;;11.93;;
69401;SDS011;56589;51.992;5.924;2022-11-20T08:26:40;20.58;;;12.40;;
69401;SDS011;56589;51.992;5.924;2022-11-20T08:29:06;21.50;;;11.82;;
69401;SDS011;56589;51.992;5.924;2022-11-20T08:31:32;22.42;;;12.32;;
69401;SDS011;56589;51.992;5.924;2022-11-20T08:33:58;20.30;;;11.88;;
69401;SDS011;56589;51.992;5.924;2022-11-20T08:36:24;20.48;;;12.65;;
69401;SDS011;56589;51.992;5.924;2022-11-20T08:38:53;21.52;;;12.80;;
69401;SDS011;56589;51.992;5.924;2022-11-20T08:41:20;22.50;;;12.70;;
69401;SDS011;56589;51.992;5.924;2022-11-20T08:43:47;22.42;;;12.48;;
69401;SDS011;56589;51.992;5.924;2022-11-20T08:46:14;24.65;;;13.60;;
69401;SDS011;56589;51.992;5.924;2022-11-20T08:48:40;23.80;;;12.93;;
69401;SDS011;56589;51.992;5.924;2022-11-20T08:51:06;21.15;;;13.43;;
69401;SDS011;56589;51.992;5.924;2022-11-20T08:53:32;23.73;;;13.23;;
69401;SDS011;56589;51.992;5.924;2022-11-20T08:56:00;22.55;;;13.50;;
69401;SDS011;56589;51.992;5.924;2022-11-20T08:58:26;26.92;;;14.48;;
69401;SDS011;56589;51.992;5.924;2022-11-20T09:00:52;21.63;;;13.73;;
69401;SDS011;56589;51.992;5.924;2022-11-20T09:03:18;24.77;;;13.93;;
69401;SDS011;56589;51.992;5.924;2022-11-20T09:05:44;24.92;;;14.63;;
69401;SDS011;56589;51.992;5.924;2022-11-20T09:08:10;24.80;;;14.43;;
69401;SDS011;56589;51.992;5.924;2022-11-20T09:10:36;27.48;;;14.48;;
69401;SDS011;56589;51.992;5.924;2022-11-20T09:13:05;28.15;;;14.55;;
69401;SDS011;56589;51.992;5.924;2022-11-20T09:15:31;28.63;;;15.52;;
69401;SDS011;56589;51.992;5.924;2022-11-20T09:17:58;22.15;;;13.60;;
69401;SDS011;56589;51.992;5.924;2022-11-20T09:20:26;22.80;;;13.50;;
69401;SDS011;56589;51.992;5.924;2022-11-20T09:22:53;25.85;;;14.45;;
69401;SDS011;56589;51.992;5.924;2022-11-20T09:25:20;25.10;;;14.27;;
69401;SDS011;56589;51.992;5.924;2022-11-20T09:27:46;24.98;;;14.32;;
69401;SDS011;56589;51.992;5.924;2022-11-20T09:30:15;26.65;;;15.23;;
69401;SDS011;56589;51.992;5.924;2022-11-20T09:32:41;24.48;;;13.50;;
69401;SDS011;56589;51.992;5.924;2022-11-20T09:35:08;23.17;;;13.93;;
69401;SDS011;56589;51.992;5.924;2022-11-20T09:37:35;23.10;;;13.50;;
69401;SDS011;56589;51.992;5.924;2022-11-20T09:40:01;24.15;;;13.77;;
69401;SDS011;56589;51.992;5.924;2022-11-20T09:42:30;53.67;;;38.33;;
69401;SDS011;56589;51.992;5.924;2022-11-20T09:45:18;23.48;;;16.10;;
69401;SDS011;56589;51.992;5.924;2022-11-20T09:48:05;20.70;;;13.63;;
69401;SDS011;56589;51.992;5.924;2022-11-20T09:50:59;21.88;;;12.02;;
69401;SDS011;56589;51.992;5.924;2022-11-20T09:53:40;22.58;;;13.23;;
69401;SDS011;56589;51.992;5.924;2022-11-20T09:56:25;23.25;;;13.70;;
69401;SDS011;56589;51.992;5.924;2022-11-20T09:58:54;23.05;;;14.52;;
69401;SDS011;56589;51.992;5.924;2022-11-20T10:01:29;28.80;;;19.75;;
69401;SDS011;56589;51.992;5.924;2022-11-20T10:04:00;25.25;;;16.05;;
69401;SDS011;56589;51.992;5.924;2022-11-20T10:06:31;25.15;;;13.82;;
69401;SDS011;56589;51.992;5.924;2022-11-20T10:09:13;23.30;;;12.73;;
69401;SDS011;56589;51.992;5.924;2022-11-20T10:11:51;23.63;;;13.57;;
69401;SDS011;56589;51.992;5.924;2022-11-20T10:14:37;20.55;;;13.27;;
69401;SDS011;56589;51.992;5.924;2022-11-20T10:17:22;22.42;;;13.55;;
69401;SDS011;56589;51.992;5.924;2022-11-20T10:20:15;24.20;;;15.85;;
69401;SDS011;56589;51.992;5.924;2022-11-20T10:22:56;45.45;;;36.30;;
69401;SDS011;56589;51.992;5.924;2022-11-20T10:25:51;27.67;;;15.45;;
69401;SDS011;56589;51.992;5.924;2022-11-20T10:28:28;24.33;;;14.27;;
69401;SDS011;56589;51.992;5.924;2022-11-20T10:31:10;37.70;;;20.55;;
69401;SDS011;56589;51.992;5.924;2022-11-20T10:33:52;25.35;;;15.57;;
69401;SDS011;56589;51.992;5.924;2022-11-20T10:36:26;22.80;;;12.95;;
69401;SDS011;56589;51.992;5.924;2022-11-20T10:38:59;30.02;;;15.13;;
69401;SDS011;56589;51.992;5.924;2022-11-20T10:44:05;27.08;;;14.90;;
69401;SDS011;56589;51.992;5.924;2022-11-20T10:46:40;31.17;;;17.05;;
69401;SDS011;56589;51.992;5.924;2022-11-20T10:49:14;27.27;;;14.98;;
69401;SDS011;56589;51.992;5.924;2022-11-20T10:51:48;27.35;;;16.58;;
69401;SDS011;56589;51.992;5.924;2022-11-20T10:54:31;31.05;;;16.42;;
69401;SDS011;56589;51.992;5.924;2022-11-20T10:57:07;28.02;;;14.82;;
69401;SDS011;56589;51.992;5.924;2022-11-20T10:59:54;27.38;;;14.23;;
69401;SDS011;56589;51.992;5.924;2022-11-20T11:02:31;24.27;;;14.70;;
69401;SDS011;56589;51.992;5.924;2022-11-20T11:08:01;112.57;;;101.72;;
69401;SDS011;56589;51.992;5.924;2022-11-20T11:10:36;28.75;;;19.73;;
69401;SDS011;56589;51.992;5.924;2022-11-20T11:13:19;26.63;;;14.90;;
69401;SDS011;56589;51.992;5.924;2022-11-20T11:15:47;26.67;;;15.60;;
69401;SDS011;56589;51.992;5.924;2022-11-20T11:18:22;26.98;;;15.05;;
69401;SDS011;56589;51.992;5.924;2022-11-20T11:20:53;26.17;;;15.27;;
69401;SDS011;56589;51.992;5.924;2022-11-20T11:23:29;28.35;;;15.80;;
69401;SDS011;56589;51.992;5.924;2022-11-20T11:26:00;24.77;;;14.82;;
69401;SDS011;56589;51.992;5.924;2022-11-20T11:28:28;24.27;;;14.77;;
69401;SDS011;56589;51.992;5.924;2022-11-20T11:30:54;28.85;;;16.45;;
69401;SDS011;56589;51.992;5.924;2022-11-20T11:33:21;28.92;;;15.48;;
69401;SDS011;56589;51.992;5.924;2022-11-20T11:35:49;25.52;;;15.65;;
69401;SDS011;56589;51.992;5.924;2022-11-20T11:38:21;25.00;;;14.32;;
69401;SDS011;56589;51.992;5.924;2022-11-20T11:40:54;24.92;;;15.15;;
69401;SDS011;56589;51.992;5.924;2022-11-20T11:43:23;23.35;;;14.23;;
69401;SDS011;56589;51.992;5.924;2022-11-20T11:45:52;24.15;;;14.57;;
69401;SDS011;56589;51.992;5.924;2022-11-20T11:48:20;23.73;;;14.38;;
69401;SDS011;56589;51.992;5.924;2022-11-20T11:50:47;28.08;;;14.85;;
69401;SDS011;56589;51.992;5.924;2022-11-20T11:53:17;26.48;;;14.23;;
69401;SDS011;56589;51.992;5.924;2022-11-20T11:55:47;21.83;;;13.55;;
69401;SDS011;56589;51.992;5.924;2022-11-20T11:58:28;22.30;;;14.50;;
69401;SDS011;56589;51.992;5.924;2022-11-20T12:01:12;25.25;;;15.07;;
69401;SDS011;56589;51.992;5.924;2022-11-20T12:06:25;24.10;;;14.82;;
69401;SDS011;56589;51.992;5.924;2022-11-20T12:08:57;24.35;;;15.45;;
69401;SDS011;56589;51.992;5.924;2022-11-20T12:11:30;27.30;;;16.65;;
69401;SDS011;56589;51.992;5.924;2022-11-20T12:14:09;28.08;;;16.95;;
69401;SDS011;56589;51.992;5.924;2022-11-20T12:16:43;24.27;;;15.48;;
69401;SDS011;56589;51.992;5.924;2022-11-20T12:19:12;28.52;;;17.23;;
69401;SDS011;56589;51.992;5.924;2022-11-20T12:21:45;28.90;;;15.98;;
69401;SDS011;56589;51.992;5.924;2022-11-20T12:24:31;23.25;;;15.32;;
69401;SDS011;56589;51.992;5.924;2022-11-20T12:27:25;24.38;;;16.48;;
69401;SDS011;56589;51.992;5.924;2022-11-20T12:30:30;26.30;;;15.77;;
69401;SDS011;56589;51.992;5.924;2022-11-20T12:33:08;25.23;;;15.23;;
69401;SDS011;56589;51.992;5.924;2022-11-20T12:36:06;26.08;;;15.57;;
69401;SDS011;56589;51.992;5.924;2022-11-20T12:38:53;26.67;;;15.98;;
69401;SDS011;56589;51.992;5.924;2022-11-20T12:41:53;23.95;;;15.25;;
69401;SDS011;56589;51.992;5.924;2022-11-20T12:47:51;24.65;;;15.40;;
69401;SDS011;56589;51.992;5.924;2022-11-20T12:50:47;24.13;;;15.60;;
69401;SDS011;56589;51.992;5.924;2022-11-20T12:53:36;24.23;;;14.63;;
69401;SDS011;56589;51.992;5.924;2022-11-20T12:56:18;26.83;;;16.38;;
69401;SDS011;56589;51.992;5.924;2022-11-20T12:59:06;25.80;;;15.60;;
69401;SDS011;56589;51.992;5.924;2022-11-20T13:01:54;24.30;;;15.40;;
69401;SDS011;56589;51.992;5.924;2022-11-20T13:07:25;27.45;;;15.80;;
69401;SDS011;56589;51.992;5.924;2022-11-20T13:09:55;25.40;;;15.38;;
69401;SDS011;56589;51.992;5.924;2022-11-20T13:12:24;25.13;;;14.90;;
69401;SDS011;56589;51.992;5.924;2022-11-20T13:15:02;24.55;;;15.13;;
69401;SDS011;56589;51.992;5.924;2022-11-20T13:17:45;24.05;;;14.55;;
69401;SDS011;56589;51.992;5.924;2022-11-20T13:20:19;27.92;;;15.93;;
69401;SDS011;56589;51.992;5.924;2022-11-20T13:22:46;26.38;;;15.55;;
69401;SDS011;56589;51.992;5.924;2022-11-20T13:25:23;27.63;;;15.82;;
69401;SDS011;56589;51.992;5.924;2022-11-20T13:27:50;29.42;;;16.45;;
69401;SDS011;56589;51.992;5.924;2022-11-20T13:30:20;28.40;;;16.13;;
69401;SDS011;56589;51.992;5.924;2022-11-20T13:32:49;27.70;;;16.50;;
69401;SDS011;56589;51.992;5.924;2022-11-20T13:35:24;26.15;;;15.77;;
69401;SDS011;56589;51.992;5.924;2022-11-20T13:38:00;28.88;;;15.85;;
69401;SDS011;56589;51.992;5.924;2022-11-20T13:40:33;26.02;;;15.75;;
69401;SDS011;56589;51.992;5.924;2022-11-20T13:43:14;28.55;;;17.27;;
69401;SDS011;56589;51.992;5.924;2022-11-20T13:45:59;32.45;;;17.58;;
69401;SDS011;56589;51.992;5.924;2022-11-20T13:48:30;29.40;;;17.10;;
69401;SDS011;56589;51.992;5.924;2022-11-20T13:51:07;30.58;;;17.90;;
69401;SDS011;56589;51.992;5.924;2022-11-20T13:54:01;28.08;;;17.38;;
69401;SDS011;56589;51.992;5.924;2022-11-20T13:56:48;29.08;;;16.60;;
69401;SDS011;56589;51.992;5.924;2022-11-20T13:59:44;30.90;;;18.10;;
69401;SDS011;56589;51.992;5.924;2022-11-20T14:02:25;33.15;;;18.17;;
69401;SDS011;56589;51.992;5.924;2022-11-20T14:04:56;29.45;;;16.83;;
69401;SDS011;56589;51.992;5.924;2022-11-20T14:07:27;30.20;;;16.60;;
69401;SDS011;56589;51.992;5.924;2022-11-20T14:10:02;31.17;;;18.52;;
69401;SDS011;56589;51.992;5.924;2022-11-20T14:12:30;33.05;;;18.50;;
69401;SDS011;56589;51.992;5.924;2022-11-20T14:14:58;38.53;;;19.70;;
69401;SDS011;56589;51.992;5.924;2022-11-20T14:17:32;32.90;;;18.73;;
69401;SDS011;56589;51.992;5.924;2022-11-20T14:20:00;32.40;;;18.52;;
69401;SDS011;56589;51.992;5.924;2022-11-20T14:22:31;30.63;;;18.05;;
69401;SDS011;56589;51.992;5.924;2022-11-20T14:25:04;34.10;;;19.45;;
69401;SDS011;56589;51.992;5.924;2022-11-20T14:27:44;33.45;;;19.02;;
69401;SDS011;56589;51.992;5.924;2022-11-20T14:32:48;30.98;;;18.05;;
69401;SDS011;56589;51.992;5.924;2022-11-20T14:35:18;32.92;;;19.02;;
69401;SDS011;56589;51.992;5.924;2022-11-20T14:40:24;32.65;;;18.35;;
69401;SDS011;56589;51.992;5.924;2022-11-20T14:42:53;36.53;;;19.55;;
69401;SDS011;56589;51.992;5.924;2022-11-20T14:45:20;32.67;;;19.00;;
69401;SDS011;56589;51.992;5.924;2022-11-20T14:47:50;40.58;;;21.15;;
69401;SDS011;56589;51.992;5.924;2022-11-20T14:50:19;38.58;;;20.58;;
69401;SDS011;56589;51.992;5.924;2022-11-20T14:52:50;33.58;;;19.35;;
69401;SDS011;56589;51.992;5.924;2022-11-20T14:55:25;37.78;;;21.00;;
69401;SDS011;56589;51.992;5.924;2022-11-20T14:57:57;38.80;;;22.27;;
69401;SDS011;56589;51.992;5.924;2022-11-20T15:00:25;36.35;;;20.85;;
69401;SDS011;56589;51.992;5.924;2022-11-20T15:02:54;36.70;;;20.92;;
69401;SDS011;56589;51.992;5.924;2022-11-20T15:05:21;37.80;;;21.33;;